Ellensburg, WA

8:55 AM PDT on August 27, 2014 (GMT -0700)
Central Washington University | Change Station
CLOSE
Current Station
Personal Weather Station
Location: Ellensburg, WA
Elevation: 1598 ft
Nearby Weather Stations

Elev 1598 ft 47.01 °N, 120.54 °W | Updated 7 minutes ago

Clear
Clear
69.9 °F
Feels Like 69.9 °F
N
0.0
Wind Variable Wind from WNW

Today
High -- | Low -- °F
--% Chance of Precip.
Yesterday
High -- | Low -- °F
Precip. -- in
6:15 AM 7:51 PM
Waxing Crescent, 4% visible
Pressure 30.01 in
Visibility 10.0 miles
Clouds Clear
Dew Point 57 °F
Humidity 63%
Rainfall 0.00 in
Snow Depth 0 in , 0 in
UV 2.1 out of 12
Pollen 4.80 out of 12
Air Quality Not available.
Flu Activity Not available.
METAR KELN 271453Z AUTO 10004KT 10SM CLR 19/12 A3004 RMK AO2 SLP161 T01940122 51009

More Conditions Fewer Conditions

Pressure 30.01 in
Visibility 10.0 miles
Clouds Clear
Dew Point 57 °F
Humidity 63%
Rainfall 0.00 in
Snow Depth 0 in , 0 in
UV 2.1 out of 12
Pollen 4.80 out of 12
Air Quality Not available.
Flu Activity Not available.
METAR KELN 271453Z AUTO 10004KT 10SM CLR 19/12 A3004 RMK AO2 SLP161 T01940122 51009

More Conditions Fewer Conditions

10-Day Weather Forecast

Almanac

Astronomy

Aug. 27, 2014 Rise Set
Actual Time 6:15 AM PDT 7:51 PM PDT
Civil Twilight 5:43 AM PDT 8:23 PM PDT
Nautical Twilight 5:04 AM PDT 9:01 PM PDT
Astronomical Twilight 4:21 AM PDT 9:43 PM PDT
Moon 8:26 AM PDT 8:33 PM PDT
Length of Visible Light 14h 39m
Length of Day
13h 35m
Tomorrow will be 3m 12s shorter.
Waxing Crescent, 4% of the Moon is Illuminated
Today
Waxing Crescent
Sep 2
First Quarter
Sep 8
Full
Sep 15
Last Quarter
Sep 24
New

Today's Extremes

State Highs State Lows

Community

WunderPhotos

Upload Photos

1,747,711 photos uploaded!

Nearby

Snow Depth

Station Depth Elevation
Grouse Camp 0 in 5380 ft
Trough 0 in 5300 ft
Upper Wheeler 0 in 4400 ft
Sasse Ridge 0 in 4200 ft
Stampede Pass 2 in 3860 ft

Earthquake Activity

City Distance Mag. Time & Date
No recent earthquake activity has been reported nearby.
Minimum magnitude displayed is 2.5.

Coastal Water Temperatures

Place Temperature
No Stations Reporting

Nearby Weather Stations